Time;durP1;ratioP1;P1;durP2;ratioP2;P2;SDS_P1;SDS_P2;PMS_P1;PMS_P2;Temp;Humidity;BMP_temperature;BMP_pressure;BME280_temperature;BME280_humidity;BME280_pressure;Samples;Min_cycle;Max_cycle;Signal;HPM_P1;HPM_P2
2022/04/29 00:02:07;;;;;;;1.67;1.20;;;11.60;1.00;;;;;;5095449;28;20485;-57
2022/04/29 00:04:34;;;;;;;1.40;1.00;;;11.50;1.00;;;;;;5095056;28;20763;-57
2022/04/29 00:07:01;;;;;;;1.50;1.10;;;11.40;1.00;;;;;;5094983;28;21040;-56
2022/04/29 00:09:28;;;;;;;1.60;1.10;;;11.30;1.00;;;;;;5095329;28;20536;-55
2022/04/29 00:11:55;;;;;;;2.13;1.10;;;11.30;1.00;;;;;;5094889;28;20474;-54
2022/04/29 00:14:23;;;;;;;1.77;1.20;;;11.30;1.00;;;;;;5095418;28;20450;-57
2022/04/29 00:16:50;;;;;;;1.60;1.10;;;11.40;1.00;;;;;;5096674;28;20461;-55
2022/04/29 00:19:17;;;;;;;1.40;1.10;;;11.30;1.00;;;;;;5096668;28;20456;-55
2022/04/29 00:21:44;;;;;;;1.33;1.03;;;11.30;1.00;;;;;;5096580;28;20527;-56
2022/04/29 00:24:11;;;;;;;1.50;1.00;;;11.30;1.00;;;;;;5096666;28;20468;-55
2022/04/29 00:26:39;;;;;;;1.20;0.90;;;11.30;1.00;;;;;;5095319;28;20453;-56
2022/04/29 00:29:09;;;;;;;1.47;1.10;;;11.20;1.00;;;;;;5095375;28;20451;-56
2022/04/29 00:31:38;;;;;;;1.30;1.00;;;11.30;1.00;;;;;;5095731;28;20919;-56
2022/04/29 00:34:05;;;;;;;3.17;0.93;;;11.20;1.00;;;;;;5095619;28;20452;-55
2022/04/29 00:36:32;;;;;;;2.13;1.10;;;11.20;1.00;;;;;;5095121;28;20936;-56
2022/04/29 00:38:59;;;;;;;1.27;1.00;;;11.10;56.50;;;;;;5095949;28;20802;-59
2022/04/29 00:41:26;;;;;;;2.63;1.20;;;11.10;99.90;;;;;;5096561;28;20484;-57
2022/04/29 00:44:01;;;;;;;1.27;1.00;;;11.00;99.90;;;;;;5095633;28;20464;-55
2022/04/29 00:46:28;;;;;;;1.20;1.00;;;11.00;99.90;;;;;;5095766;28;20556;-56
2022/04/29 00:48:56;;;;;;;1.10;0.93;;;10.90;99.90;;;;;;5095958;28;20872;-58
2022/04/29 00:51:23;;;;;;;1.50;1.03;;;10.90;99.90;;;;;;5095982;28;20445;-58
2022/04/29 00:53:51;;;;;;;1.63;1.00;;;10.90;99.90;;;;;;5096625;28;20736;-57
2022/04/29 00:56:21;;;;;;;1.53;1.00;;;10.80;99.90;;;;;;5092921;28;20493;-54
2022/04/29 00:58:55;;;;;;;1.10;0.90;;;10.80;1.00;;;;;;5092042;28;20752;-57
2022/04/29 01:01:24;;;;;;;3.40;1.00;;;10.70;1.00;;;;;;5092349;28;20771;-56
2022/04/29 01:03:54;;;;;;;1.30;1.03;;;10.70;99.90;;;;;;5092809;28;20452;-58
2022/04/29 01:06:25;;;;;;;1.10;1.00;;;10.80;1.00;;;;;;5093027;28;20460;-58
2022/04/29 01:08:51;;;;;;;1.17;1.03;;;10.80;1.00;;;;;;5093446;28;20873;-55
2022/04/29 01:11:22;;;;;;;1.90;1.00;;;10.80;99.90;;;;;;5094287;28;20465;-57
2022/04/29 01:13:50;;;;;;;6.80;1.43;;;10.80;1.00;;;;;;5094828;28;20449;-55
2022/04/29 01:16:18;;;;;;;1.60;1.00;;;10.70;1.00;;;;;;5094249;28;20457;-58
2022/04/29 01:18:45;;;;;;;1.67;1.20;;;10.60;59.20;;;;;;5095286;28;20445;-58
2022/04/29 01:21:12;;;;;;;1.90;1.10;;;10.60;99.90;;;;;;5098857;28;20781;-58
2022/04/29 01:23:41;;;;;;;1.50;1.00;;;10.60;99.90;;;;;;5099360;28;20806;-58
2022/04/29 01:26:10;;;;;;;1.40;1.10;;;10.60;99.90;;;;;;5100199;28;20458;-58
2022/04/29 01:28:37;;;;;;;2.40;1.20;;;10.60;99.90;;;;;;5099194;28;20499;-58
2022/04/29 01:31:06;;;;;;;3.00;1.10;;;10.70;7.00;;;;;;5099430;28;20833;-58
2022/04/29 01:33:33;;;;;;;1.53;1.10;;;10.70;4.70;;;;;;5099239;28;20778;-57
2022/04/29 01:36:00;;;;;;;2.87;1.10;;;10.70;12.50;;;;;;5099589;28;20873;-58
2022/04/29 01:38:27;;;;;;;2.47;1.00;;;10.80;99.90;;;;;;5098824;28;20452;-58
2022/04/29 01:40:55;;;;;;;2.40;1.20;;;10.80;1.00;;;;;;5098599;28;20465;-58
2022/04/29 01:43:22;;;;;;;1.47;1.00;;;10.70;1.00;;;;;;5097859;28;20809;-57
2022/04/29 01:45:49;;;;;;;2.43;1.47;;;10.60;1.00;;;;;;5097582;28;20460;-57
2022/04/29 01:48:15;;;;;;;2.67;1.13;;;10.50;1.00;;;;;;5098708;28;20448;-57
2022/04/29 01:50:42;;;;;;;1.30;0.97;;;10.50;64.70;;;;;;5098770;28;20544;-58
2022/04/29 01:53:09;;;;;;;1.80;1.27;;;10.40;1.00;;;;;;5098494;28;20445;-58
2022/04/29 01:55:36;;;;;;;1.37;1.10;;;10.40;99.90;;;;;;5098932;28;20468;-58
2022/04/29 01:58:06;;;;;;;1.67;1.10;;;10.30;99.90;;;;;;5098796;28;20897;-57
2022/04/29 02:00:33;;;;;;;1.60;1.20;;;10.20;1.00;;;;;;5099041;28;20446;-56
2022/04/29 02:02:59;;;;;;;1.67;1.20;;;10.30;1.00;;;;;;5099202;28;20480;-57
2022/04/29 02:05:26;;;;;;;1.60;1.03;;;10.40;57.10;;;;;;5098622;28;20452;-57
2022/04/29 02:07:54;;;;;;;1.67;1.20;;;10.30;1.00;;;;;;5098560;28;20446;-57
2022/04/29 02:10:21;;;;;;;1.83;1.10;;;10.30;1.00;;;;;;5097209;28;20438;-58
2022/04/29 02:12:48;;;;;;;1.80;1.30;;;10.30;99.90;;;;;;5098021;28;20450;-55
2022/04/29 02:15:16;;;;;;;1.60;1.10;;;10.20;99.90;;;;;;5097850;28;20453;-56
2022/04/29 02:17:43;;;;;;;1.53;1.10;;;10.20;99.90;;;;;;5098354;28;20553;-57
2022/04/29 02:20:10;;;;;;;1.50;1.30;;;10.10;1.00;;;;;;5097576;28;20441;-57
2022/04/29 02:22:39;;;;;;;3.23;1.20;;;10.10;22.90;;;;;;5097481;28;20770;-53
2022/04/29 02:25:06;;;;;;;1.97;1.30;;;10.10;98.50;;;;;;5097312;28;20449;-57
2022/04/29 02:27:33;;;;;;;1.33;1.07;;;10.00;99.90;;;;;;5095929;28;20457;-56
2022/04/29 02:30:00;;;;;;;2.50;1.23;;;10.00;1.00;;;;;;5095100;28;20496;-57
2022/04/29 02:32:29;;;;;;;1.90;1.33;;;10.00;99.90;;;;;;5095869;28;20484;-55
2022/04/29 02:34:56;;;;;;;2.13;1.10;;;10.00;1.00;;;;;;5097169;28;20452;-55
2022/04/29 02:37:23;;;;;;;2.27;1.30;;;10.10;99.90;;;;;;5097057;28;20458;-56
2022/04/29 02:39:50;;;;;;;2.20;2.00;;;10.10;99.90;;;;;;5097884;28;20442;-55
2022/04/29 02:42:17;;;;;;;2.57;1.40;;;10.00;99.90;;;;;;5098518;28;20879;-56
2022/04/29 02:44:44;;;;;;;1.97;1.30;;;9.90;99.90;;;;;;5098427;28;20453;-55
2022/04/29 02:47:10;;;;;;;1.97;1.20;;;9.80;1.00;;;;;;5097912;28;20450;-55
2022/04/29 02:49:41;;;;;;;2.13;1.13;;;9.70;99.90;;;;;;5098205;28;20559;-55
2022/04/29 02:52:09;;;;;;;1.60;1.13;;;9.80;99.90;;;;;;5098346;28;20895;-54
2022/04/29 02:54:36;;;;;;;1.90;1.10;;;9.80;1.00;;;;;;5098278;28;20641;-55
2022/04/29 02:57:04;;;;;;;2.03;1.30;;;9.90;99.90;;;;;;5097119;28;20461;-57
2022/04/29 02:59:31;;;;;;;1.83;1.10;;;9.90;99.90;;;;;;5096909;28;20802;-57
2022/04/29 03:01:58;;;;;;;1.60;1.13;;;9.90;1.00;;;;;;5097243;28;20842;-55
2022/04/29 03:04:24;;;;;;;2.00;1.30;;;9.80;1.00;;;;;;5096926;28;20448;-57
2022/04/29 03:06:53;;;;;;;1.90;1.30;;;9.80;1.00;;;;;;5097360;28;20960;-58
2022/04/29 03:09:20;;;;;;;3.00;1.03;;;9.80;99.90;;;;;;5097428;28;20510;-57
2022/04/29 03:11:47;;;;;;;1.70;1.30;;;9.80;99.90;;;;;;5097001;28;20450;-54
2022/04/29 03:14:14;;;;;;;2.60;1.50;;;9.80;99.90;;;;;;5095620;28;20821;-55
2022/04/29 03:16:41;;;;;;;1.50;1.20;;;9.80;1.00;;;;;;5095581;28;20457;-56
2022/04/29 03:19:08;;;;;;;2.00;1.70;;;9.80;1.00;;;;;;5094461;28;20891;-55
2022/04/29 03:21:35;;;;;;;2.60;1.63;;;9.70;1.00;;;;;;5093048;28;20465;-56
2022/04/29 03:24:04;;;;;;;2.20;1.30;;;9.70;18.50;;;;;;5092558;28;20448;-58
2022/04/29 03:26:31;;;;;;;1.70;1.23;;;9.60;99.90;;;;;;5093707;28;20480;-60
2022/04/29 03:28:58;;;;;;;2.20;1.40;;;9.70;1.00;;;;;;5094541;28;20881;-54
2022/04/29 03:31:25;;;;;;;3.80;2.23;;;9.70;1.00;;;;;;5095699;28;20548;-56
2022/04/29 03:33:52;;;;;;;2.73;1.43;;;9.60;99.90;;;;;;5096605;28;20448;-56
2022/04/29 03:36:19;;;;;;;1.80;1.30;;;9.70;99.90;;;;;;5097651;28;20497;-55
2022/04/29 03:38:46;;;;;;;1.80;1.17;;;9.70;99.90;;;;;;5097429;28;20449;-53
2022/04/29 03:41:14;;;;;;;1.93;1.30;;;9.80;99.90;;;;;;5096505;28;20453;-54
2022/04/29 03:43:41;;;;;;;2.63;1.30;;;9.70;1.00;;;;;;5096827;28;20477;-56
2022/04/29 03:46:08;;;;;;;4.07;1.40;;;9.60;99.90;;;;;;5096856;28;20457;-60
2022/04/29 03:51:15;;;;;;;2.20;1.70;;;9.70;99.90;;;;;;5096859;28;20994;-56
2022/04/29 03:53:42;;;;;;;2.17;1.20;;;9.60;1.00;;;;;;5097098;28;20740;-57
2022/04/29 03:56:09;;;;;;;2.93;1.67;;;9.60;1.00;;;;;;5097218;28;20445;-56
2022/04/29 03:58:37;;;;;;;4.77;1.93;;;9.50;1.00;;;;;;5097096;28;20442;-56
2022/04/29 04:01:04;;;;;;;2.43;1.50;;;9.50;34.60;;;;;;5096760;28;20450;-54
2022/04/29 04:03:31;;;;;;;2.03;1.30;;;9.50;53.30;;;;;;5096581;28;20503;-55
2022/04/29 04:08:42;;;;;;;2.53;1.50;;;9.70;1.00;;;;;;5095422;28;20425;-58
2022/04/29 04:11:09;;;;;;;2.77;1.93;;;9.70;99.90;;;;;;5094876;28;20548;-56
2022/04/29 04:13:37;;;;;;;2.23;1.47;;;9.60;1.00;;;;;;5095409;28;20441;-58
2022/04/29 04:16:04;;;;;;;3.10;1.37;;;9.50;99.90;;;;;;5095632;28;20493;-58
2022/04/29 04:18:32;;;;;;;2.60;2.00;;;9.50;1.00;;;;;;5095867;28;20869;-58
2022/04/29 04:20:59;;;;;;;1.87;1.70;;;9.50;51.20;;;;;;5095985;28;20504;-57
2022/04/29 04:23:26;;;;;;;1.80;1.17;;;9.50;1.00;;;;;;5095784;28;20481;-58
2022/04/29 04:25:56;;;;;;;2.40;1.73;;;9.50;4.30;;;;;;5096383;28;20449;-58
2022/04/29 04:28:23;;;;;;;2.70;1.43;;;9.50;99.90;;;;;;5095168;28;20449;-55
2022/04/29 04:30:52;;;;;;;2.60;1.50;;;9.50;89.50;;;;;;5093280;28;20469;-59
2022/04/29 04:33:18;;;;;;;2.77;1.30;;;9.50;99.90;;;;;;5093756;28;20473;-57
2022/04/29 04:35:45;;;;;;;2.37;1.50;;;9.50;1.00;;;;;;5094082;28;20457;-57
2022/04/29 04:38:14;;;;;;;3.27;1.90;;;9.60;99.90;;;;;;5094247;28;20437;-58
2022/04/29 04:40:42;;;;;;;2.07;1.50;;;9.60;99.90;;;;;;5094658;28;20445;-57
2022/04/29 04:43:09;;;;;;;2.10;1.50;;;9.60;99.90;;;;;;5093745;28;20575;-58
2022/04/29 04:45:36;;;;;;;1.87;1.40;;;9.70;1.00;;;;;;5094841;28;20885;-57
2022/04/29 04:48:05;;;;;;;2.33;1.80;;;9.80;99.90;;;;;;5094487;28;20447;-58
2022/04/29 04:50:32;;;;;;;2.27;2.07;;;9.90;99.90;;;;;;5094345;28;20452;-57
2022/04/29 04:52:59;;;;;;;2.10;1.50;;;10.00;1.00;;;;;;5094990;28;20757;-56
2022/04/29 04:55:26;;;;;;;3.33;1.63;;;10.00;99.90;;;;;;5098804;28;20445;-58
2022/04/29 04:57:53;;;;;;;4.23;2.20;;;9.90;99.60;;;;;;5098562;28;20449;-57
2022/04/29 05:00:21;;;;;;;2.83;2.07;;;10.00;38.50;;;;;;5099075;28;20452;-58
2022/04/29 05:02:48;;;;;;;2.53;1.83;;;10.10;1.00;;;;;;5098856;28;20566;-60
2022/04/29 05:05:16;;;;;;;2.00;1.57;;;10.00;99.90;;;;;;5098057;28;20499;-57
2022/04/29 05:07:43;;;;;;;6.13;2.50;;;10.10;1.00;;;;;;5098833;28;20559;-57
2022/04/29 05:10:11;;;;;;;3.03;1.40;;;10.10;1.00;;;;;;5098318;28;20548;-58
2022/04/29 05:12:42;;;;;;;2.77;1.80;;;10.20;99.90;;;;;;5098724;28;20753;-55
2022/04/29 05:15:10;;;;;;;3.63;2.37;;;10.30;32.50;;;;;;5099153;28;20443;-58
2022/04/29 05:17:38;;;;;;;2.93;1.70;;;10.40;1.00;;;;;;5098532;28;20454;-58
2022/04/29 05:20:06;;;;;;;1.63;1.40;;;10.40;99.90;;;;;;5098382;28;20453;-58
2022/04/29 05:22:34;;;;;;;2.70;1.50;;;10.40;99.90;;;;;;5098531;28;20477;-53
2022/04/29 05:25:01;;;;;;;2.37;1.60;;;10.30;1.00;;;;;;5098865;28;20742;-53
2022/04/29 05:27:31;;;;;;;2.83;2.17;;;10.50;1.00;;;;;;5098402;28;20914;-55
2022/04/29 05:30:02;;;;;;;3.07;2.50;;;10.70;1.00;;;;;;5097809;28;20445;-58
2022/04/29 05:32:30;;;;;;;2.47;2.20;;;10.80;1.00;;;;;;5097910;28;20520;-57
2022/04/29 05:34:58;;;;;;;2.37;1.60;;;10.90;1.00;;;;;;5098265;28;20503;-58
2022/04/29 05:37:27;;;;;;;4.07;2.10;;;10.70;1.00;;;;;;5096889;28;20456;-58
2022/04/29 05:42:40;;;;;;;5.83;2.47;;;10.40;99.90;;;;;;5097679;28;20561;-58
2022/04/29 05:45:08;;;;;;;4.40;2.83;;;10.30;1.00;;;;;;5094923;28;20447;-58
2022/04/29 05:47:35;;;;;;;6.43;2.27;;;10.10;99.90;;;;;;5094644;28;20457;-59
2022/04/29 05:50:03;;;;;;;2.87;2.53;;;10.10;3.50;;;;;;5093381;28;20454;-58
2022/04/29 05:52:30;;;;;;;3.40;2.30;;;10.10;99.90;;;;;;5089443;28;20522;-58
2022/04/29 05:54:58;;;;;;;3.00;2.47;;;10.20;1.00;;;;;;5083625;28;20546;-60
2022/04/29 05:57:25;;;;;;;3.60;2.13;;;10.20;99.90;;;;;;5091867;28;20456;-59
2022/04/29 05:59:52;;;;;;;3.33;3.03;;;10.30;1.00;;;;;;5078163;28;20875;-58
2022/04/29 06:02:21;;;;;;;5.23;3.57;;;10.40;1.00;;;;;;5087570;28;20446;-58
2022/04/29 06:04:48;;;;;;;4.77;2.53;;;10.40;99.90;;;;;;5084849;28;20450;-60
2022/04/29 06:07:18;;;;;;;3.90;2.90;;;10.50;1.00;;;;;;5081466;28;20454;-60
2022/04/29 06:09:48;;;;;;;2.63;2.43;;;10.60;1.00;;;;;;5089995;28;20596;-60
2022/04/29 06:12:16;;;;;;;3.80;2.10;;;10.70;1.00;;;;;;5081328;28;20480;-54
2022/04/29 06:14:45;;;;;;;4.67;2.87;;;10.80;1.00;;;;;;5091061;28;20889;-55
2022/04/29 06:17:12;;;;;;;6.03;3.30;;;10.90;1.00;;;;;;5090175;28;20616;-56
2022/04/29 06:19:39;;;;;;;3.40;2.67;;;10.90;1.00;;;;;;5077041;28;20457;-56
2022/04/29 06:22:06;;;;;;;3.97;3.57;;;10.90;1.00;;;;;;5089391;28;20509;-57
2022/04/29 06:24:34;;;;;;;6.00;3.53;;;11.00;1.00;;;;;;5083240;28;20885;-59
2022/04/29 06:27:01;;;;;;;4.17;3.43;;;11.10;99.90;;;;;;5082872;28;20451;-55
2022/04/29 06:29:29;;;;;;;4.50;3.13;;;11.10;99.90;;;;;;5090166;28;20465;-55
2022/04/29 06:31:56;;;;;;;3.83;3.27;;;11.20;99.90;;;;;;5078092;28;20471;-56
2022/04/29 06:34:22;;;;;;;3.63;2.93;;;11.40;1.00;;;;;;5083873;28;20454;-56
2022/04/29 06:36:49;;;;;;;3.03;2.43;;;11.50;1.00;;;;;;5083352;28;20746;-57
2022/04/29 06:39:16;;;;;;;5.30;3.23;;;11.80;1.00;;;;;;5079764;28;20446;-56
2022/04/29 06:41:43;;;;;;;5.90;4.00;;;12.00;1.00;;;;;;5086685;28;20525;-53
2022/04/29 06:44:10;;;;;;;9.00;4.37;;;12.10;99.90;;;;;;5082287;28;20481;-59
2022/04/29 06:46:39;;;;;;;5.93;3.27;;;12.00;99.90;;;;;;5081970;28;20449;-53
2022/04/29 06:49:06;;;;;;;3.40;2.63;;;12.20;99.90;;;;;;5095243;28;20434;-56
2022/04/29 06:51:33;;;;;;;8.13;4.60;;;12.40;99.90;;;;;;5076680;28;20454;-56
2022/04/29 06:53:59;;;;;;;4.00;3.63;;;12.70;99.90;;;;;;5094037;28;20540;-56
2022/04/29 06:56:26;;;;;;;5.73;4.37;;;12.80;99.90;;;;;;5086814;28;20457;-53
2022/04/29 06:58:53;;;;;;;4.73;4.20;;;12.90;99.90;;;;;;5084274;28;20889;-52
2022/04/29 07:01:20;;;;;;;7.40;3.60;;;12.80;95.70;;;;;;5094655;28;20445;-51
2022/04/29 07:03:49;;;;;;;7.97;5.47;;;12.80;99.90;;;;;;5075648;28;20482;-52
2022/04/29 07:06:15;;;;;;;5.07;4.27;;;13.00;90.50;;;;;;5085035;28;20544;-53
2022/04/29 07:08:42;;;;;;;6.97;4.23;;;13.00;52.40;;;;;;5083599;28;20448;-51
2022/04/29 07:11:09;;;;;;;6.40;3.43;;;13.10;59.00;;;;;;5081515;28;20970;-50
2022/04/29 07:13:36;;;;;;;5.60;4.50;;;13.30;1.00;;;;;;5091208;28;20524;-54
2022/04/29 07:16:04;;;;;;;3.27;2.67;;;13.50;1.00;;;;;;5077582;28;20446;-52
2022/04/29 07:18:31;;;;;;;3.37;2.73;;;13.60;1.00;;;;;;5082985;28;21054;-50
2022/04/29 07:20:59;;;;;;;3.70;3.17;;;13.80;1.00;;;;;;5082305;28;20454;-60
2022/04/29 07:23:26;;;;;;;7.33;4.43;;;13.90;1.00;;;;;;5089265;28;20796;-58
2022/04/29 07:25:53;;;;;;;4.13;3.73;;;14.00;1.00;;;;;;5076842;28;20450;-59
2022/04/29 07:28:21;;;;;;;5.20;2.70;;;14.00;1.00;;;;;;5092197;28;20905;-58
2022/04/29 07:30:47;;;;;;;4.47;3.07;;;14.10;1.00;;;;;;5083213;28;20486;-59
2022/04/29 07:33:15;;;;;;;4.07;3.00;;;14.10;1.00;;;;;;5076974;28;20553;-59
2022/04/29 07:43:56;;;;;;;2.90;2.10;;;14.30;1.00;;;;;;5089124;28;20816;-60
2022/04/29 07:46:26;;;;;;;4.70;3.20;;;14.20;1.00;;;;;;5080728;28;20441;-59
2022/04/29 07:48:55;;;;;;;4.47;3.43;;;14.20;1.00;;;;;;5082932;28;20446;-59
2022/04/29 07:51:22;;;;;;;3.23;2.80;;;14.40;1.00;;;;;;5087436;28;20994;-59
2022/04/29 07:53:51;;;;;;;3.87;3.13;;;14.60;1.00;;;;;;5074170;28;20876;-60
2022/04/29 07:56:17;;;;;;;4.50;2.13;;;14.60;1.00;;;;;;5084510;28;20598;-59
2022/04/29 07:58:44;;;;;;;5.37;3.43;;;14.60;1.00;;;;;;5080089;28;20457;-60
2022/04/29 08:01:11;;;;;;;4.53;3.70;;;14.70;1.00;;;;;;5085638;28;20553;-60
2022/04/29 08:03:38;;;;;;;4.37;3.77;;;14.70;1.00;;;;;;5085192;28;20960;-60
2022/04/29 08:06:06;;;;;;;3.63;3.00;;;14.70;1.00;;;;;;5078176;28;20434;-60
2022/04/29 08:08:34;;;;;;;3.40;3.03;;;14.70;1.00;;;;;;5092259;28;20446;-59
2022/04/29 08:11:03;;;;;;;6.53;4.20;;;14.70;1.00;;;;;;5088551;28;20442;-59
2022/04/29 08:13:31;;;;;;;5.50;3.73;;;14.60;1.00;;;;;;5088819;28;20503;-60
2022/04/29 08:15:58;;;;;;;5.73;4.03;;;14.60;1.00;;;;;;5075137;28;20892;-60
2022/04/29 08:18:26;;;;;;;4.10;2.90;;;14.60;1.00;;;;;;5087053;28;20438;-59
2022/04/29 08:20:52;;;;;;;4.10;2.60;;;14.70;1.00;;;;;;5078753;28;20458;-60
2022/04/29 08:23:19;;;;;;;3.03;2.30;;;14.80;1.00;;;;;;5084098;28;20480;-60
2022/04/29 08:25:46;;;;;;;3.70;2.50;;;14.90;1.00;;;;;;5074711;28;20447;-60
2022/04/29 08:28:18;;;;;;;4.63;2.53;;;14.80;1.00;;;;;;5084700;28;20449;-61
2022/04/29 08:30:46;;;;;;;3.40;2.40;;;15.00;1.00;;;;;;5066856;28;20494;-60
2022/04/29 08:33:14;;;;;;;2.43;2.10;;;15.10;1.00;;;;;;5068037;28;20478;-59
2022/04/29 08:35:42;;;;;;;5.57;3.70;;;15.20;1.00;;;;;;5087282;28;20538;-59
2022/04/29 08:38:10;;;;;;;4.87;1.83;;;15.40;1.00;;;;;;5075936;28;20437;-60
2022/04/29 08:40:41;;;;;;;5.37;3.30;;;15.60;1.00;;;;;;5090083;28;21115;-60
2022/04/29 08:43:09;;;;;;;3.40;1.97;;;15.70;1.00;;;;;;5078204;28;20457;-60
2022/04/29 08:45:38;;;;;;;4.03;2.93;;;15.80;1.00;;;;;;5089394;28;20449;-60
2022/04/29 08:48:06;;;;;;;3.40;2.27;;;15.90;1.00;;;;;;5076622;28;20950;-60
2022/04/29 08:50:33;;;;;;;2.37;1.20;;;16.20;1.00;;;;;;5083406;28;20961;-60
2022/04/29 08:53:00;;;;;;;3.70;1.70;;;16.30;1.00;;;;;;5071692;28;20461;-60
2022/04/29 09:01:02;;;;;;;1.97;1.30;;;16.90;1.00;;;;;;5078978;28;20472;-60
2022/04/29 09:03:29;;;;;;;2.60;1.60;;;17.10;1.00;;;;;;5083565;28;20795;-62
2022/04/29 09:05:57;;;;;;;2.50;1.27;;;17.20;1.00;;;;;;5069813;28;20461;-60
2022/04/29 09:08:24;;;;;;;2.93;1.53;;;17.30;1.00;;;;;;5081296;28;20435;-59
2022/04/29 09:10:53;;;;;;;2.00;1.20;;;17.50;1.00;;;;;;5081913;28;20455;-59
2022/04/29 09:13:24;;;;;;;2.10;1.20;;;17.60;1.00;;;;;;5076839;28;20500;-59
2022/04/29 09:15:54;;;;;;;3.53;1.17;;;17.80;1.00;;;;;;5087589;28;20449;-60
2022/04/29 09:18:37;;;;;;;1.93;1.40;;;18.00;1.00;;;;;;5085650;28;20460;-59
2022/04/29 09:21:07;;;;;;;3.80;1.57;;;18.10;1.00;;;;;;5089585;28;20475;-58
2022/04/29 09:23:38;;;;;;;2.67;2.00;;;18.20;1.00;;;;;;5089990;28;20444;-59
2022/04/29 09:26:06;;;;;;;4.40;2.00;;;18.20;1.00;;;;;;5085966;28;20207;-59
2022/04/29 09:28:35;;;;;;;2.20;1.30;;;18.10;1.00;;;;;;5077275;28;20435;-57
2022/04/29 09:31:05;;;;;;;3.20;1.10;;;18.20;1.00;;;;;;5083487;28;20472;-58
2022/04/29 09:33:35;;;;;;;2.27;1.07;;;18.50;1.00;;;;;;5090951;28;20481;-59
2022/04/29 09:36:03;;;;;;;1.53;1.00;;;18.80;1.00;;;;;;5076670;28;20473;-60
2022/04/29 09:41:23;;;;;;;3.13;1.50;;;19.40;1.00;;;;;;5074385;28;20739;-58
2022/04/29 09:43:50;;;;;;;6.83;1.30;;;19.50;1.00;;;;;;5084051;28;20480;-58
2022/04/29 09:46:19;;;;;;;1.60;1.20;;;19.60;1.00;;;;;;5090580;28;20460;-59
2022/04/29 09:48:56;;;;;;;2.70;1.80;;;19.50;1.00;;;;;;5083898;28;20469;-58
2022/04/29 09:51:46;;;;;;;2.47;1.30;;;19.80;1.00;;;;;;5092955;28;20459;-58
2022/04/29 09:54:22;;;;;;;1.57;1.23;;;19.80;1.00;;;;;;5082547;28;20545;-58
2022/04/29 09:57:13;;;;;;;1.70;1.10;;;19.90;1.00;;;;;;5085113;28;20537;-59
2022/04/29 09:59:43;;;;;;;6.87;1.40;;;19.80;1.00;;;;;;5093469;28;20776;-59
2022/04/29 10:02:12;;;;;;;2.00;1.40;;;19.70;1.00;;;;;;5095684;28;20755;-59
2022/04/29 10:04:40;;;;;;;2.97;1.20;;;19.50;1.00;;;;;;5094142;28;20473;-59
2022/04/29 10:07:10;;;;;;;2.13;1.37;;;19.60;1.00;;;;;;5095967;28;20885;-58
2022/04/29 10:09:40;;;;;;;1.27;0.97;;;19.70;1.00;;;;;;5090864;28;20532;-58
2022/04/29 10:12:13;;;;;;;1.57;1.10;;;19.80;1.00;;;;;;5077259;28;20446;-58
2022/04/29 10:14:42;;;;;;;1.90;1.10;;;19.70;1.00;;;;;;5091258;28;20498;-58
2022/04/29 10:22:50;;;;;;;2.07;1.23;;;19.50;1.00;;;;;;5084322;28;20433;-60
2022/04/29 10:25:19;;;;;;;1.30;1.00;;;19.70;1.00;;;;;;5093057;28;20481;-59
2022/04/29 10:27:46;;;;;;;1.00;0.70;;;20.00;1.00;;;;;;5094909;28;20461;-59
2022/04/29 10:30:15;;;;;;;1.00;0.80;;;20.30;1.00;;;;;;5096788;28;20512;-58
2022/04/29 10:33:15;;;;;;;0.83;0.70;;;20.10;1.00;;;;;;5093381;28;20498;-60
2022/04/29 10:35:56;;;;;;;1.10;0.80;;;19.90;1.00;;;;;;5093029;28;20441;-59
2022/04/29 10:38:31;;;;;;;0.90;0.70;;;20.10;1.00;;;;;;5091158;28;20453;-58
2022/04/29 10:41:15;;;;;;;0.90;0.63;;;20.30;1.00;;;;;;5094038;28;20463;-58
2022/04/29 10:43:46;;;;;;;1.10;0.80;;;20.90;1.00;;;;;;5093474;28;20465;-59
2022/04/29 10:46:21;;;;;;;1.03;0.80;;;21.00;1.00;;;;;;5088470;28;20442;-58
2022/04/29 10:48:49;;;;;;;6.53;1.80;;;21.00;1.00;;;;;;5088664;28;20877;-59
2022/04/29 10:51:20;;;;;;;1.47;0.90;;;21.00;1.00;;;;;;5092883;28;20457;-60
2022/04/29 10:53:50;;;;;;;1.63;0.90;;;21.20;1.00;;;;;;5104978;28;20547;-59
2022/04/29 10:56:37;;;;;;;1.73;0.83;;;21.50;1.00;;;;;;5103809;28;20767;-60
2022/04/29 10:59:21;;;;;;;1.10;0.77;;;21.80;1.00;;;;;;5087104;28;20459;-59
2022/04/29 11:02:06;;;;;;;1.00;0.70;;;22.00;1.00;;;;;;5097691;28;20441;-60
2022/04/29 11:04:44;;;;;;;1.27;0.70;;;22.00;1.00;;;;;;5080177;28;21159;-60
2022/04/29 11:07:42;;;;;;;1.10;0.90;;;22.20;1.00;;;;;;5086307;28;20445;-59
2022/04/29 11:10:16;;;;;;;0.90;0.80;;;22.00;1.00;;;;;;5091960;28;20893;-60
2022/04/29 11:12:59;;;;;;;3.07;0.87;;;22.20;1.00;;;;;;5076813;28;21091;-60
2022/04/29 11:15:42;;;;;;;1.17;0.80;;;21.80;1.00;;;;;;5101231;28;20532;-60
2022/04/29 11:18:19;;;;;;;0.87;0.70;;;22.30;1.00;;;;;;5095613;28;21396;-59
2022/04/29 11:20:48;;;;;;;0.90;0.80;;;22.30;1.00;;;;;;5094254;28;20824;-59
2022/04/29 11:26:11;;;;;;;0.93;0.70;;;22.50;1.00;;;;;;5092538;28;21040;-61
2022/04/29 11:28:38;;;;;;;0.90;0.77;;;22.40;1.00;;;;;;5093255;28;20455;-59
2022/04/29 11:31:08;;;;;;;0.93;0.80;;;22.20;1.00;;;;;;5092133;28;20433;-59
2022/04/29 11:33:35;;;;;;;1.30;0.80;;;22.00;1.00;;;;;;5094851;28;20481;-59
2022/04/29 11:36:05;;;;;;;1.50;0.90;;;21.90;1.00;;;;;;5093372;28;20441;-59
2022/04/29 11:38:42;;;;;;;1.00;0.77;;;21.80;1.00;;;;;;5080224;28;20466;-59
2022/04/29 11:41:14;;;;;;;5.47;4.57;;;21.40;1.00;;;;;;5085239;28;20449;-59
2022/04/29 11:43:41;;;;;;;4.10;2.13;;;21.50;1.00;;;;;;5092415;28;20453;-58
2022/04/29 11:46:09;;;;;;;0.90;0.80;;;21.70;1.00;;;;;;5094145;28;20480;-60
2022/04/29 11:48:36;;;;;;;0.90;0.70;;;22.20;1.00;;;;;;5094291;28;20946;-62
2022/04/29 11:51:05;;;;;;;1.23;0.80;;;22.50;1.00;;;;;;5094139;28;20448;-59
2022/04/29 11:53:33;;;;;;;1.10;0.90;;;22.20;1.00;;;;;;5094237;28;20548;-59
2022/04/29 11:56:00;;;;;;;1.30;0.90;;;21.70;1.00;;;;;;5094736;28;20437;-59
2022/04/29 11:58:32;;;;;;;1.10;0.80;;;21.40;1.00;;;;;;5095239;28;20460;-58
2022/04/29 12:00:59;;;;;;;1.00;0.70;;;21.00;1.00;;;;;;5093638;28;20533;-59
2022/04/29 12:03:26;;;;;;;1.20;0.90;;;21.10;1.00;;;;;;5093712;28;20572;-59
2022/04/29 12:05:53;;;;;;;1.10;0.70;;;21.10;1.00;;;;;;5092970;28;20477;-59
2022/04/29 12:08:20;;;;;;;1.10;0.80;;;21.10;1.00;;;;;;5092992;28;20453;-59
2022/04/29 12:10:48;;;;;;;4.00;0.90;;;20.90;1.00;;;;;;5090384;28;20608;-59
2022/04/29 12:13:18;;;;;;;1.10;0.90;;;20.80;1.00;;;;;;5092510;28;20654;-59
2022/04/29 12:15:46;;;;;;;1.13;0.80;;;20.80;1.00;;;;;;5090988;28;20445;-57
2022/04/29 12:18:15;;;;;;;1.97;0.90;;;20.70;1.00;;;;;;5091191;28;20449;-57
2022/04/29 12:20:44;;;;;;;1.10;0.90;;;20.50;1.00;;;;;;5092266;28;20550;-57
2022/04/29 12:23:14;;;;;;;2.70;2.50;;;20.50;1.00;;;;;;5091090;28;20497;-56
2022/04/29 12:25:46;;;;;;;1.13;0.90;;;20.40;1.00;;;;;;5090762;28;20566;-58
2022/04/29 12:28:14;;;;;;;0.90;0.80;;;20.20;1.00;;;;;;5091554;28;20561;-58
2022/04/29 12:36:48;;;;;;;0.80;0.70;;;20.40;1.00;;;;;;5036101;28;20429;-58
2022/04/29 12:39:16;;;;;;;1.27;0.77;;;20.90;1.00;;;;;;5092944;28;20451;-59
2022/04/29 12:41:43;;;;;;;1.10;0.70;;;21.30;1.00;;;;;;5090600;28;20749;-59
2022/04/29 12:45:03;;;;;;;1.40;0.80;;;21.70;1.00;;;;;;5093564;28;20453;-58
2022/04/29 12:46:59;;;;;;;1.10;0.80;;;21.50;1.00;;;;;;5093677;28;20610;-59
2022/04/29 12:49:27;;;;;;;0.97;0.87;;;22.00;1.00;;;;;;5092507;28;20508;-59
2022/04/29 12:51:59;;;;;;;2.73;2.40;;;22.20;1.00;;;;;;5094847;28;20885;-58
2022/04/29 12:54:27;;;;;;;1.53;0.80;;;22.00;1.00;;;;;;5093277;28;20464;-59
2022/04/29 12:56:54;;;;;;;3.53;0.90;;;22.00;1.00;;;;;;5093227;28;20892;-60
2022/04/29 12:59:23;;;;;;;2.10;0.90;;;22.20;1.00;;;;;;5092625;28;20873;-58
2022/04/29 13:01:49;;;;;;;1.50;1.10;;;22.20;1.00;;;;;;5093373;28;20445;-58
2022/04/29 13:04:16;;;;;;;1.80;1.57;;;22.40;1.00;;;;;;5091743;28;20455;-58
2022/04/29 13:06:45;;;;;;;4.17;1.00;;;22.60;1.00;;;;;;5090576;28;20450;-58
2022/04/29 13:09:12;;;;;;;3.40;1.60;;;22.60;1.00;;;;;;5089084;28;20507;-58
2022/04/29 13:11:39;;;;;;;5.50;2.63;;;22.50;1.00;;;;;;5092059;28;20656;-58
2022/04/29 13:14:06;;;;;;;1.00;0.90;;;22.80;1.00;;;;;;5090857;28;20453;-58
2022/04/29 13:16:32;;;;;;;1.00;0.90;;;23.30;1.00;;;;;;5095306;28;20438;-58
2022/04/29 13:19:00;;;;;;;1.33;0.70;;;23.20;1.00;;;;;;5093279;28;20453;-58
2022/04/29 13:21:26;;;;;;;0.97;0.77;;;23.40;1.00;;;;;;5091541;28;20453;-57
2022/04/29 13:23:56;;;;;;;1.23;0.90;;;23.30;1.00;;;;;;5093473;28;20449;-58
2022/04/29 13:26:23;;;;;;;1.13;0.90;;;23.30;1.00;;;;;;5091923;28;20473;-57
2022/04/29 13:28:50;;;;;;;0.97;0.80;;;22.50;1.00;;;;;;5090990;28;20765;-57
2022/04/29 13:31:17;;;;;;;1.20;0.80;;;21.90;99.90;;;;;;5093548;28;20738;-57
2022/04/29 13:33:43;;;;;;;1.00;0.73;;;22.10;99.90;;;;;;5092744;28;20491;-58
2022/04/29 13:36:14;;;;;;;1.60;1.00;;;22.00;99.90;;;;;;5094518;28;20536;-58
2022/04/29 13:38:41;;;;;;;1.10;0.87;;;22.00;99.90;;;;;;5095930;28;20457;-58
2022/04/29 13:41:09;;;;;;;1.10;0.90;;;21.90;99.90;;;;;;5096150;28;20448;-58
2022/04/29 13:43:36;;;;;;;1.27;0.90;;;22.00;99.90;;;;;;5095083;28;20455;-58